Center City, MN (55012)

3:56 PM CST on January 19, 2017 (GMT -0600)
Amador Township | | Change Station

Elev 880 ft 45.55 °N, 92.80 °W | Updated 17 seconds ago

Mostly Cloudy
Mostly Cloudy
39.6 °F
Feels Like 33 °F
N
11.5
Wind Variable Wind from SSE
Gusts 11.5 mph

Today
High -- | Low -- °F
--% Chance of Precip.
Yesterday
High -- | Low -- °F
Precip. -- in
Pressure 29.78 in
Visibility 10.0 miles
Clouds Overcast 7500 ft
Windchill 33 °F
Dew Point 33 °F
Humidity 77%
Rainfall 0.05 in
Snow Depth Not available.
7:44 AM 5:00 PM
Waning Gibbous, 50% visible
METAR KOEO 192135Z AUTO 14008KT 10SM OVC075 04/00 A2978 RMK AO2 T00350003
Pressure 29.78 in
Visibility 10.0 miles
Clouds Overcast 7500 ft
Windchill 33 °F
Dew Point 33 °F
Humidity 77%
Rainfall 0.05 in
Snow Depth Not available.
7:44 AM 5:00 PM
Waning Gibbous, 50% visible
METAR KOEO 192135Z AUTO 14008KT 10SM OVC075 04/00 A2978 RMK AO2 T00350003

Get Your Daily Forecast Email!

Thanks for signing up!

Be on the lookout for a verification email in your inbox.

You'll start receiving the daily forecast at 8 AM.

×

10-Day Weather Forecast

Almanac

Astronomy

Jan. 19, 2017 Rise Set
Actual Time
Civil Twilight
Nautical Twilight
Astronomical Twilight
Moon
Length of Visible Light
Length of Day
Tomorrow will be .
, % of the Moon is Illuminated

Today's Extremes

State Highs State Lows

Community

WunderPhotos

Upload Photos

1,962,540 photos uploaded!

WunderBlog® & News

Nearby

Air Quality

  Air Quality AQ Index Pollutant
Not available.

Snow Depth

Station Depth Elevation

Earthquake Activity

City Distance Mag. Time & Date
Minimum magnitude displayed is 2.5.

Coastal Water Temperatures

Place Temperature

Stations

Nearby Weather Stations

Station Location Temp. Windchill Dew Point Humidity Wind Precip. Elev Updated Type
                   

Watches & Warnings

There are currently no watches in effect.